sensor_id;sensor_type;location;lat;lon;timestamp;P1;durP1;ratioP1;P2;durP2;ratioP2
12593;SDS011;6362;50.208;9.182;2023-06-14T00:00:11;4.72;;;3.40;;
12593;SDS011;6362;50.208;9.182;2023-06-14T00:02:38;5.68;;;3.35;;
12593;SDS011;6362;50.208;9.182;2023-06-14T00:05:04;6.38;;;3.40;;
12593;SDS011;6362;50.208;9.182;2023-06-14T00:07:34;8.38;;;3.60;;
12593;SDS011;6362;50.208;9.182;2023-06-14T00:10:02;7.10;;;3.28;;
12593;SDS011;6362;50.208;9.182;2023-06-14T00:12:29;6.65;;;3.30;;
12593;SDS011;6362;50.208;9.182;2023-06-14T00:14:54;6.97;;;3.65;;
12593;SDS011;6362;50.208;9.182;2023-06-14T00:17:20;5.80;;;3.42;;
12593;SDS011;6362;50.208;9.182;2023-06-14T00:19:45;4.10;;;2.95;;
12593;SDS011;6362;50.208;9.182;2023-06-14T00:22:11;6.15;;;3.20;;
12593;SDS011;6362;50.208;9.182;2023-06-14T00:24:37;5.70;;;3.60;;
12593;SDS011;6362;50.208;9.182;2023-06-14T00:27:02;6.85;;;3.80;;
12593;SDS011;6362;50.208;9.182;2023-06-14T00:29:28;8.50;;;3.50;;
12593;SDS011;6362;50.208;9.182;2023-06-14T00:31:53;5.05;;;3.28;;
12593;SDS011;6362;50.208;9.182;2023-06-14T00:34:19;7.22;;;3.95;;
12593;SDS011;6362;50.208;9.182;2023-06-14T00:36:44;7.68;;;3.13;;
12593;SDS011;6362;50.208;9.182;2023-06-14T00:39:09;4.97;;;3.25;;
12593;SDS011;6362;50.208;9.182;2023-06-14T00:41:35;5.55;;;3.33;;
12593;SDS011;6362;50.208;9.182;2023-06-14T00:44:00;5.57;;;3.15;;
12593;SDS011;6362;50.208;9.182;2023-06-14T00:46:26;4.57;;;3.60;;
12593;SDS011;6362;50.208;9.182;2023-06-14T00:48:51;4.82;;;3.38;;
12593;SDS011;6362;50.208;9.182;2023-06-14T00:51:17;4.20;;;3.05;;
12593;SDS011;6362;50.208;9.182;2023-06-14T00:53:43;6.10;;;3.45;;
12593;SDS011;6362;50.208;9.182;2023-06-14T00:56:12;6.82;;;3.30;;
12593;SDS011;6362;50.208;9.182;2023-06-14T00:58:39;5.95;;;3.13;;
12593;SDS011;6362;50.208;9.182;2023-06-14T01:01:05;5.53;;;3.17;;
12593;SDS011;6362;50.208;9.182;2023-06-14T01:03:31;9.70;;;3.75;;
12593;SDS011;6362;50.208;9.182;2023-06-14T01:06:18;4.38;;;3.38;;
12593;SDS011;6362;50.208;9.182;2023-06-14T01:12:00;7.18;;;3.50;;
12593;SDS011;6362;50.208;9.182;2023-06-14T01:14:27;5.35;;;3.47;;
12593;SDS011;6362;50.208;9.182;2023-06-14T01:16:55;4.68;;;3.35;;
12593;SDS011;6362;50.208;9.182;2023-06-14T01:19:22;5.28;;;3.10;;
12593;SDS011;6362;50.208;9.182;2023-06-14T01:21:50;5.85;;;3.03;;
12593;SDS011;6362;50.208;9.182;2023-06-14T01:24:16;4.75;;;3.20;;
12593;SDS011;6362;50.208;9.182;2023-06-14T01:26:44;6.00;;;3.30;;
12593;SDS011;6362;50.208;9.182;2023-06-14T01:29:12;4.30;;;3.30;;
12593;SDS011;6362;50.208;9.182;2023-06-14T01:31:42;6.80;;;3.58;;
12593;SDS011;6362;50.208;9.182;2023-06-14T01:34:08;3.97;;;2.97;;
12593;SDS011;6362;50.208;9.182;2023-06-14T01:36:35;4.20;;;3.20;;
12593;SDS011;6362;50.208;9.182;2023-06-14T01:39:03;7.93;;;3.15;;
12593;SDS011;6362;50.208;9.182;2023-06-14T01:41:30;10.13;;;4.68;;
12593;SDS011;6362;50.208;9.182;2023-06-14T01:43:56;6.03;;;3.30;;
12593;SDS011;6362;50.208;9.182;2023-06-14T01:46:23;4.40;;;2.90;;
12593;SDS011;6362;50.208;9.182;2023-06-14T01:48:49;3.50;;;2.95;;
12593;SDS011;6362;50.208;9.182;2023-06-14T01:51:15;8.10;;;3.35;;
12593;SDS011;6362;50.208;9.182;2023-06-14T01:53:40;5.53;;;3.38;;
12593;SDS011;6362;50.208;9.182;2023-06-14T01:56:06;5.32;;;3.65;;
12593;SDS011;6362;50.208;9.182;2023-06-14T01:58:31;4.45;;;3.17;;
12593;SDS011;6362;50.208;9.182;2023-06-14T02:00:57;7.63;;;3.38;;
12593;SDS011;6362;50.208;9.182;2023-06-14T02:03:23;4.28;;;3.15;;
12593;SDS011;6362;50.208;9.182;2023-06-14T02:05:49;6.57;;;3.05;;
12593;SDS011;6362;50.208;9.182;2023-06-14T02:08:14;7.15;;;2.80;;
12593;SDS011;6362;50.208;9.182;2023-06-14T02:10:40;7.18;;;3.45;;
12593;SDS011;6362;50.208;9.182;2023-06-14T02:13:05;5.78;;;2.65;;
12593;SDS011;6362;50.208;9.182;2023-06-14T02:15:30;4.85;;;3.40;;
12593;SDS011;6362;50.208;9.182;2023-06-14T02:17:59;5.65;;;3.00;;
12593;SDS011;6362;50.208;9.182;2023-06-14T02:20:25;5.88;;;3.38;;
12593;SDS011;6362;50.208;9.182;2023-06-14T02:22:50;5.78;;;2.80;;
12593;SDS011;6362;50.208;9.182;2023-06-14T02:25:16;5.95;;;3.20;;
12593;SDS011;6362;50.208;9.182;2023-06-14T02:27:41;9.68;;;3.35;;
12593;SDS011;6362;50.208;9.182;2023-06-14T02:30:07;6.20;;;3.92;;
12593;SDS011;6362;50.208;9.182;2023-06-14T02:32:32;6.07;;;4.00;;
12593;SDS011;6362;50.208;9.182;2023-06-14T02:35:01;6.85;;;3.53;;
12593;SDS011;6362;50.208;9.182;2023-06-14T02:37:27;4.88;;;3.67;;
12593;SDS011;6362;50.208;9.182;2023-06-14T02:39:52;4.10;;;3.40;;
12593;SDS011;6362;50.208;9.182;2023-06-14T02:42:18;6.55;;;3.75;;
12593;SDS011;6362;50.208;9.182;2023-06-14T02:44:43;5.22;;;3.15;;
12593;SDS011;6362;50.208;9.182;2023-06-14T02:47:10;4.68;;;3.42;;
12593;SDS011;6362;50.208;9.182;2023-06-14T02:49:35;7.00;;;3.63;;
12593;SDS011;6362;50.208;9.182;2023-06-14T02:52:01;4.45;;;3.70;;
12593;SDS011;6362;50.208;9.182;2023-06-14T02:54:27;6.38;;;3.55;;
12593;SDS011;6362;50.208;9.182;2023-06-14T02:56:53;8.60;;;3.70;;
12593;SDS011;6362;50.208;9.182;2023-06-14T02:59:18;6.35;;;3.40;;
12593;SDS011;6362;50.208;9.182;2023-06-14T03:01:44;4.55;;;3.75;;
12593;SDS011;6362;50.208;9.182;2023-06-14T03:04:10;4.85;;;3.95;;
12593;SDS011;6362;50.208;9.182;2023-06-14T03:06:35;4.75;;;3.60;;
12593;SDS011;6362;50.208;9.182;2023-06-14T03:09:02;7.25;;;3.58;;
12593;SDS011;6362;50.208;9.182;2023-06-14T03:11:31;4.03;;;3.28;;
12593;SDS011;6362;50.208;9.182;2023-06-14T03:13:57;6.97;;;3.22;;
12593;SDS011;6362;50.208;9.182;2023-06-14T03:16:23;6.00;;;3.30;;
12593;SDS011;6362;50.208;9.182;2023-06-14T03:18:52;7.82;;;3.58;;
12593;SDS011;6362;50.208;9.182;2023-06-14T03:21:18;6.13;;;3.83;;
12593;SDS011;6362;50.208;9.182;2023-06-14T03:23:45;6.30;;;3.63;;
12593;SDS011;6362;50.208;9.182;2023-06-14T03:26:11;6.25;;;3.58;;
12593;SDS011;6362;50.208;9.182;2023-06-14T03:28:43;8.75;;;3.10;;
12593;SDS011;6362;50.208;9.182;2023-06-14T03:31:12;4.97;;;2.97;;
12593;SDS011;6362;50.208;9.182;2023-06-14T03:33:38;5.10;;;3.17;;
12593;SDS011;6362;50.208;9.182;2023-06-14T03:36:04;6.43;;;3.55;;
12593;SDS011;6362;50.208;9.182;2023-06-14T03:38:30;7.72;;;3.60;;
12593;SDS011;6362;50.208;9.182;2023-06-14T03:40:56;6.05;;;3.28;;
12593;SDS011;6362;50.208;9.182;2023-06-14T03:43:21;5.22;;;3.17;;
12593;SDS011;6362;50.208;9.182;2023-06-14T03:45:46;4.32;;;3.15;;
12593;SDS011;6362;50.208;9.182;2023-06-14T03:48:12;4.53;;;3.38;;
12593;SDS011;6362;50.208;9.182;2023-06-14T03:50:37;4.85;;;3.05;;
12593;SDS011;6362;50.208;9.182;2023-06-14T03:53:03;5.25;;;2.90;;
12593;SDS011;6362;50.208;9.182;2023-06-14T03:55:29;5.90;;;3.00;;
12593;SDS011;6362;50.208;9.182;2023-06-14T03:57:56;6.30;;;3.13;;
12593;SDS011;6362;50.208;9.182;2023-06-14T04:00:22;6.80;;;3.50;;
12593;SDS011;6362;50.208;9.182;2023-06-14T04:02:48;8.88;;;3.17;;
12593;SDS011;6362;50.208;9.182;2023-06-14T04:05:13;5.40;;;3.05;;
12593;SDS011;6362;50.208;9.182;2023-06-14T04:07:41;4.85;;;3.08;;
12593;SDS011;6362;50.208;9.182;2023-06-14T04:10:10;5.95;;;3.15;;
12593;SDS011;6362;50.208;9.182;2023-06-14T04:12:36;4.72;;;3.03;;
12593;SDS011;6362;50.208;9.182;2023-06-14T04:15:01;3.92;;;3.10;;
12593;SDS011;6362;50.208;9.182;2023-06-14T04:17:27;8.27;;;3.70;;
12593;SDS011;6362;50.208;9.182;2023-06-14T04:19:53;5.63;;;3.33;;
12593;SDS011;6362;50.208;9.182;2023-06-14T04:22:18;9.75;;;3.42;;
12593;SDS011;6362;50.208;9.182;2023-06-14T04:24:43;6.63;;;3.50;;
12593;SDS011;6362;50.208;9.182;2023-06-14T04:27:10;3.95;;;3.13;;
12593;SDS011;6362;50.208;9.182;2023-06-14T04:29:35;5.63;;;3.55;;
12593;SDS011;6362;50.208;9.182;2023-06-14T04:32:01;6.75;;;3.28;;
12593;SDS011;6362;50.208;9.182;2023-06-14T04:34:26;8.25;;;4.05;;
12593;SDS011;6362;50.208;9.182;2023-06-14T04:36:54;4.82;;;3.13;;
12593;SDS011;6362;50.208;9.182;2023-06-14T04:39:21;5.68;;;3.50;;
12593;SDS011;6362;50.208;9.182;2023-06-14T04:41:48;6.15;;;3.28;;
12593;SDS011;6362;50.208;9.182;2023-06-14T04:44:17;6.43;;;3.40;;
12593;SDS011;6362;50.208;9.182;2023-06-14T04:46:44;4.57;;;3.17;;
12593;SDS011;6362;50.208;9.182;2023-06-14T04:49:14;5.28;;;3.17;;
12593;SDS011;6362;50.208;9.182;2023-06-14T04:51:44;6.82;;;3.53;;
12593;SDS011;6362;50.208;9.182;2023-06-14T04:54:11;6.78;;;3.42;;
12593;SDS011;6362;50.208;9.182;2023-06-14T04:56:42;6.95;;;3.28;;
12593;SDS011;6362;50.208;9.182;2023-06-14T04:59:08;5.93;;;3.35;;
12593;SDS011;6362;50.208;9.182;2023-06-14T05:01:34;6.32;;;3.58;;
12593;SDS011;6362;50.208;9.182;2023-06-14T05:04:00;7.03;;;3.63;;
12593;SDS011;6362;50.208;9.182;2023-06-14T05:06:25;4.60;;;3.35;;
12593;SDS011;6362;50.208;9.182;2023-06-14T05:08:52;4.53;;;3.20;;
12593;SDS011;6362;50.208;9.182;2023-06-14T05:11:18;7.35;;;3.42;;
12593;SDS011;6362;50.208;9.182;2023-06-14T05:13:44;5.88;;;3.72;;
12593;SDS011;6362;50.208;9.182;2023-06-14T05:16:10;7.50;;;3.38;;
12593;SDS011;6362;50.208;9.182;2023-06-14T05:18:36;7.13;;;3.80;;
12593;SDS011;6362;50.208;9.182;2023-06-14T05:21:02;7.93;;;3.42;;
12593;SDS011;6362;50.208;9.182;2023-06-14T05:23:29;4.47;;;3.17;;
12593;SDS011;6362;50.208;9.182;2023-06-14T05:25:55;5.40;;;3.22;;
12593;SDS011;6362;50.208;9.182;2023-06-14T05:28:21;7.38;;;3.45;;
12593;SDS011;6362;50.208;9.182;2023-06-14T05:30:47;4.43;;;2.88;;
12593;SDS011;6362;50.208;9.182;2023-06-14T05:33:12;4.40;;;3.00;;
12593;SDS011;6362;50.208;9.182;2023-06-14T05:35:38;4.93;;;2.88;;
12593;SDS011;6362;50.208;9.182;2023-06-14T05:38:03;5.60;;;3.08;;
12593;SDS011;6362;50.208;9.182;2023-06-14T05:40:29;3.85;;;3.15;;
12593;SDS011;6362;50.208;9.182;2023-06-14T05:42:54;3.65;;;3.00;;
12593;SDS011;6362;50.208;9.182;2023-06-14T05:45:20;5.78;;;3.08;;
12593;SDS011;6362;50.208;9.182;2023-06-14T05:47:45;5.68;;;3.38;;
12593;SDS011;6362;50.208;9.182;2023-06-14T05:50:11;4.72;;;3.50;;
12593;SDS011;6362;50.208;9.182;2023-06-14T05:52:36;7.97;;;3.17;;
12593;SDS011;6362;50.208;9.182;2023-06-14T05:55:02;4.15;;;3.05;;
12593;SDS011;6362;50.208;9.182;2023-06-14T05:57:28;4.75;;;3.50;;
12593;SDS011;6362;50.208;9.182;2023-06-14T05:59:54;4.88;;;2.72;;
12593;SDS011;6362;50.208;9.182;2023-06-14T06:02:19;4.78;;;2.72;;
12593;SDS011;6362;50.208;9.182;2023-06-14T06:04:45;6.97;;;2.78;;
12593;SDS011;6362;50.208;9.182;2023-06-14T06:07:10;5.05;;;2.92;;
12593;SDS011;6362;50.208;9.182;2023-06-14T06:09:36;4.35;;;3.00;;
12593;SDS011;6362;50.208;9.182;2023-06-14T06:12:02;5.53;;;2.42;;
12593;SDS011;6362;50.208;9.182;2023-06-14T06:14:27;4.15;;;3.00;;
12593;SDS011;6362;50.208;9.182;2023-06-14T06:16:53;4.15;;;2.78;;
12593;SDS011;6362;50.208;9.182;2023-06-14T06:19:19;5.55;;;2.72;;
12593;SDS011;6362;50.208;9.182;2023-06-14T06:21:45;5.35;;;2.88;;
12593;SDS011;6362;50.208;9.182;2023-06-14T06:24:11;3.50;;;2.42;;
12593;SDS011;6362;50.208;9.182;2023-06-14T06:26:36;4.03;;;2.85;;
12593;SDS011;6362;50.208;9.182;2023-06-14T06:29:02;5.20;;;2.70;;
12593;SDS011;6362;50.208;9.182;2023-06-14T06:31:27;4.32;;;3.03;;
12593;SDS011;6362;50.208;9.182;2023-06-14T06:33:53;5.45;;;2.38;;
12593;SDS011;6362;50.208;9.182;2023-06-14T06:36:19;3.60;;;2.78;;
12593;SDS011;6362;50.208;9.182;2023-06-14T06:38:46;2.80;;;2.00;;
12593;SDS011;6362;50.208;9.182;2023-06-14T06:41:12;2.72;;;2.15;;
12593;SDS011;6362;50.208;9.182;2023-06-14T06:43:37;3.67;;;2.25;;
12593;SDS011;6362;50.208;9.182;2023-06-14T06:46:03;2.83;;;2.47;;
12593;SDS011;6362;50.208;9.182;2023-06-14T06:48:28;7.72;;;2.60;;
12593;SDS011;6362;50.208;9.182;2023-06-14T06:50:54;4.60;;;2.47;;
12593;SDS011;6362;50.208;9.182;2023-06-14T06:53:19;7.07;;;2.30;;
12593;SDS011;6362;50.208;9.182;2023-06-14T06:55:45;3.95;;;2.55;;
12593;SDS011;6362;50.208;9.182;2023-06-14T06:58:11;4.45;;;2.15;;
12593;SDS011;6362;50.208;9.182;2023-06-14T07:00:37;4.18;;;2.20;;
12593;SDS011;6362;50.208;9.182;2023-06-14T07:03:03;5.38;;;2.30;;
12593;SDS011;6362;50.208;9.182;2023-06-14T07:05:28;3.30;;;2.00;;
12593;SDS011;6362;50.208;9.182;2023-06-14T07:07:54;5.43;;;2.30;;
12593;SDS011;6362;50.208;9.182;2023-06-14T07:10:20;4.93;;;2.17;;
12593;SDS011;6362;50.208;9.182;2023-06-14T07:12:45;7.03;;;1.98;;
12593;SDS011;6362;50.208;9.182;2023-06-14T07:15:11;3.88;;;2.13;;
12593;SDS011;6362;50.208;9.182;2023-06-14T07:17:37;3.63;;;1.88;;
12593;SDS011;6362;50.208;9.182;2023-06-14T07:20:03;3.90;;;2.22;;
12593;SDS011;6362;50.208;9.182;2023-06-14T07:22:41;6.20;;;2.28;;
12593;SDS011;6362;50.208;9.182;2023-06-14T07:25:10;3.50;;;2.08;;
12593;SDS011;6362;50.208;9.182;2023-06-14T07:27:43;4.82;;;2.13;;
12593;SDS011;6362;50.208;9.182;2023-06-14T07:30:09;7.78;;;2.17;;
12593;SDS011;6362;50.208;9.182;2023-06-14T07:32:35;5.18;;;1.90;;
12593;SDS011;6362;50.208;9.182;2023-06-14T07:35:01;3.22;;;1.80;;
12593;SDS011;6362;50.208;9.182;2023-06-14T07:37:26;4.70;;;2.15;;
12593;SDS011;6362;50.208;9.182;2023-06-14T07:39:52;6.15;;;2.03;;
12593;SDS011;6362;50.208;9.182;2023-06-14T07:42:17;5.03;;;2.17;;
12593;SDS011;6362;50.208;9.182;2023-06-14T07:44:43;3.75;;;2.10;;
12593;SDS011;6362;50.208;9.182;2023-06-14T07:47:08;3.30;;;2.10;;
12593;SDS011;6362;50.208;9.182;2023-06-14T07:49:33;4.03;;;1.83;;
12593;SDS011;6362;50.208;9.182;2023-06-14T07:51:59;4.30;;;1.67;;
12593;SDS011;6362;50.208;9.182;2023-06-14T07:54:24;5.00;;;2.10;;
12593;SDS011;6362;50.208;9.182;2023-06-14T07:56:51;3.75;;;2.10;;
12593;SDS011;6362;50.208;9.182;2023-06-14T07:59:17;3.85;;;2.05;;
12593;SDS011;6362;50.208;9.182;2023-06-14T08:01:42;2.70;;;2.30;;
12593;SDS011;6362;50.208;9.182;2023-06-14T08:04:12;4.00;;;2.40;;
12593;SDS011;6362;50.208;9.182;2023-06-14T08:06:38;8.88;;;2.72;;
12593;SDS011;6362;50.208;9.182;2023-06-14T08:09:08;3.88;;;1.95;;
12593;SDS011;6362;50.208;9.182;2023-06-14T08:11:34;4.55;;;2.05;;
12593;SDS011;6362;50.208;9.182;2023-06-14T08:14:00;4.15;;;1.95;;
12593;SDS011;6362;50.208;9.182;2023-06-14T08:16:25;8.90;;;2.95;;
12593;SDS011;6362;50.208;9.182;2023-06-14T08:18:51;2.95;;;2.10;;
12593;SDS011;6362;50.208;9.182;2023-06-14T08:21:16;6.38;;;2.28;;
12593;SDS011;6362;50.208;9.182;2023-06-14T08:23:43;5.75;;;2.25;;
12593;SDS011;6362;50.208;9.182;2023-06-14T08:26:09;2.10;;;1.90;;
12593;SDS011;6362;50.208;9.182;2023-06-14T08:28:35;4.30;;;2.28;;
12593;SDS011;6362;50.208;9.182;2023-06-14T08:31:00;3.05;;;2.10;;
12593;SDS011;6362;50.208;9.182;2023-06-14T08:33:26;3.40;;;2.00;;
12593;SDS011;6362;50.208;9.182;2023-06-14T08:35:52;4.20;;;1.55;;
12593;SDS011;6362;50.208;9.182;2023-06-14T08:38:17;7.65;;;3.25;;
12593;SDS011;6362;50.208;9.182;2023-06-14T08:40:43;2.63;;;2.00;;
12593;SDS011;6362;50.208;9.182;2023-06-14T08:43:13;2.55;;;2.10;;
12593;SDS011;6362;50.208;9.182;2023-06-14T08:45:38;4.35;;;1.70;;
12593;SDS011;6362;50.208;9.182;2023-06-14T08:48:05;4.50;;;2.00;;
12593;SDS011;6362;50.208;9.182;2023-06-14T08:50:32;2.78;;;1.75;;
12593;SDS011;6362;50.208;9.182;2023-06-14T08:52:59;1.75;;;1.42;;
12593;SDS011;6362;50.208;9.182;2023-06-14T08:55:27;1.95;;;1.52;;
12593;SDS011;6362;50.208;9.182;2023-06-14T08:57:57;3.00;;;1.50;;
12593;SDS011;6362;50.208;9.182;2023-06-14T09:00:24;2.88;;;1.60;;
12593;SDS011;6362;50.208;9.182;2023-06-14T09:02:53;2.88;;;1.40;;
12593;SDS011;6362;50.208;9.182;2023-06-14T09:05:25;2.63;;;1.92;;
12593;SDS011;6362;50.208;9.182;2023-06-14T09:07:52;2.65;;;1.20;;
12593;SDS011;6362;50.208;9.182;2023-06-14T09:10:20;1.98;;;1.30;;
12593;SDS011;6362;50.208;9.182;2023-06-14T09:12:46;2.17;;;1.55;;
12593;SDS011;6362;50.208;9.182;2023-06-14T09:15:12;3.40;;;1.60;;
12593;SDS011;6362;50.208;9.182;2023-06-14T09:17:39;4.93;;;1.58;;
12593;SDS011;6362;50.208;9.182;2023-06-14T09:20:05;2.92;;;1.38;;
12593;SDS011;6362;50.208;9.182;2023-06-14T09:22:34;1.90;;;1.35;;
12593;SDS011;6362;50.208;9.182;2023-06-14T09:25:00;2.38;;;1.33;;
12593;SDS011;6362;50.208;9.182;2023-06-14T09:27:26;1.45;;;1.25;;
12593;SDS011;6362;50.208;9.182;2023-06-14T09:29:53;2.35;;;1.40;;
12593;SDS011;6362;50.208;9.182;2023-06-14T09:32:18;1.67;;;1.10;;
12593;SDS011;6362;50.208;9.182;2023-06-14T09:34:45;3.97;;;1.10;;
12593;SDS011;6362;50.208;9.182;2023-06-14T09:37:11;2.95;;;1.30;;
12593;SDS011;6362;50.208;9.182;2023-06-14T09:39:48;2.72;;;1.10;;
12593;SDS011;6362;50.208;9.182;2023-06-14T09:42:18;1.70;;;1.30;;
12593;SDS011;6362;50.208;9.182;2023-06-14T09:44:47;2.00;;;1.30;;
12593;SDS011;6362;50.208;9.182;2023-06-14T09:47:14;1.60;;;1.40;;
12593;SDS011;6362;50.208;9.182;2023-06-14T09:49:40;2.88;;;1.50;;
12593;SDS011;6362;50.208;9.182;2023-06-14T09:52:06;2.33;;;1.50;;
12593;SDS011;6362;50.208;9.182;2023-06-14T09:54:32;3.50;;;1.35;;
12593;SDS011;6362;50.208;9.182;2023-06-14T09:57:07;3.10;;;1.40;;
12593;SDS011;6362;50.208;9.182;2023-06-14T09:59:34;2.45;;;1.30;;
12593;SDS011;6362;50.208;9.182;2023-06-14T10:02:03;2.53;;;1.50;;
12593;SDS011;6362;50.208;9.182;2023-06-14T10:04:34;3.63;;;1.27;;
12593;SDS011;6362;50.208;9.182;2023-06-14T10:07:00;2.90;;;1.75;;
12593;SDS011;6362;50.208;9.182;2023-06-14T10:09:27;1.58;;;1.42;;
12593;SDS011;6362;50.208;9.182;2023-06-14T10:11:54;3.25;;;1.42;;
12593;SDS011;6362;50.208;9.182;2023-06-14T10:14:20;3.90;;;1.27;;
12593;SDS011;6362;50.208;9.182;2023-06-14T10:16:56;2.72;;;1.55;;
12593;SDS011;6362;50.208;9.182;2023-06-14T10:19:50;3.22;;;1.55;;
12593;SDS011;6362;50.208;9.182;2023-06-14T10:22:29;1.75;;;1.55;;
12593;SDS011;6362;50.208;9.182;2023-06-14T10:24:59;2.72;;;1.95;;
12593;SDS011;6362;50.208;9.182;2023-06-14T10:27:26;3.17;;;1.27;;
12593;SDS011;6362;50.208;9.182;2023-06-14T10:32:26;2.13;;;1.38;;
12593;SDS011;6362;50.208;9.182;2023-06-14T10:34:57;3.50;;;1.63;;
12593;SDS011;6362;50.208;9.182;2023-06-14T10:37:24;4.00;;;1.60;;
12593;SDS011;6362;50.208;9.182;2023-06-14T10:39:50;4.43;;;1.48;;
12593;SDS011;6362;50.208;9.182;2023-06-14T10:42:16;3.75;;;1.80;;
12593;SDS011;6362;50.208;9.182;2023-06-14T10:44:45;1.45;;;1.30;;
12593;SDS011;6362;50.208;9.182;2023-06-14T10:52:29;3.97;;;2.10;;
12593;SDS011;6362;50.208;9.182;2023-06-14T10:57:31;3.78;;;1.70;;
12593;SDS011;6362;50.208;9.182;2023-06-14T10:59:59;2.28;;;1.90;;
12593;SDS011;6362;50.208;9.182;2023-06-14T11:05:15;2.90;;;1.70;;
12593;SDS011;6362;50.208;9.182;2023-06-14T11:11:00;3.13;;;1.65;;
12593;SDS011;6362;50.208;9.182;2023-06-14T11:13:30;3.35;;;1.60;;
12593;SDS011;6362;50.208;9.182;2023-06-14T11:15:56;6.57;;;1.75;;
12593;SDS011;6362;50.208;9.182;2023-06-14T11:18:22;2.70;;;1.80;;
12593;SDS011;6362;50.208;9.182;2023-06-14T11:20:54;4.72;;;1.55;;
12593;SDS011;6362;50.208;9.182;2023-06-14T11:23:21;3.30;;;1.77;;
12593;SDS011;6362;50.208;9.182;2023-06-14T11:25:50;3.65;;;1.73;;
12593;SDS011;6362;50.208;9.182;2023-06-14T11:28:16;2.42;;;1.70;;
12593;SDS011;6362;50.208;9.182;2023-06-14T11:30:41;1.90;;;1.30;;
12593;SDS011;6362;50.208;9.182;2023-06-14T11:33:09;1.70;;;1.60;;
12593;SDS011;6362;50.208;9.182;2023-06-14T11:35:36;2.50;;;1.92;;
12593;SDS011;6362;50.208;9.182;2023-06-14T11:38:02;2.15;;;1.50;;
12593;SDS011;6362;50.208;9.182;2023-06-14T11:40:27;2.25;;;1.50;;
12593;SDS011;6362;50.208;9.182;2023-06-14T11:43:00;3.92;;;1.92;;
12593;SDS011;6362;50.208;9.182;2023-06-14T11:45:26;1.90;;;1.50;;
12593;SDS011;6362;50.208;9.182;2023-06-14T11:47:54;4.05;;;1.63;;
12593;SDS011;6362;50.208;9.182;2023-06-14T11:50:21;2.17;;;1.40;;
12593;SDS011;6362;50.208;9.182;2023-06-14T11:52:53;2.20;;;1.60;;
12593;SDS011;6362;50.208;9.182;2023-06-14T11:55:20;5.72;;;2.13;;
12593;SDS011;6362;50.208;9.182;2023-06-14T11:57:46;2.10;;;1.27;;
12593;SDS011;6362;50.208;9.182;2023-06-14T12:00:11;2.55;;;1.80;;
12593;SDS011;6362;50.208;9.182;2023-06-14T12:02:38;3.58;;;1.63;;
12593;SDS011;6362;50.208;9.182;2023-06-14T12:05:07;1.73;;;1.10;;
12593;SDS011;6362;50.208;9.182;2023-06-14T12:07:35;3.60;;;1.40;;
12593;SDS011;6362;50.208;9.182;2023-06-14T12:12:28;2.15;;;1.38;;
12593;SDS011;6362;50.208;9.182;2023-06-14T12:14:57;2.75;;;1.73;;
12593;SDS011;6362;50.208;9.182;2023-06-14T12:17:22;3.03;;;1.50;;
12593;SDS011;6362;50.208;9.182;2023-06-14T12:19:48;3.05;;;1.50;;
12593;SDS011;6362;50.208;9.182;2023-06-14T12:22:15;3.67;;;1.70;;
12593;SDS011;6362;50.208;9.182;2023-06-14T12:24:43;1.95;;;1.40;;
12593;SDS011;6362;50.208;9.182;2023-06-14T12:27:09;3.60;;;1.70;;
12593;SDS011;6362;50.208;9.182;2023-06-14T12:29:36;4.10;;;2.45;;
12593;SDS011;6362;50.208;9.182;2023-06-14T12:32:02;1.95;;;1.48;;
12593;SDS011;6362;50.208;9.182;2023-06-14T12:34:27;2.33;;;1.70;;
12593;SDS011;6362;50.208;9.182;2023-06-14T12:36:53;1.85;;;1.35;;
12593;SDS011;6362;50.208;9.182;2023-06-14T12:39:19;1.80;;;1.33;;
12593;SDS011;6362;50.208;9.182;2023-06-14T12:41:45;1.73;;;1.20;;
12593;SDS011;6362;50.208;9.182;2023-06-14T12:44:12;2.63;;;1.20;;
12593;SDS011;6362;50.208;9.182;2023-06-14T12:46:38;3.35;;;1.10;;
12593;SDS011;6362;50.208;9.182;2023-06-14T12:49:04;1.63;;;1.35;;
12593;SDS011;6362;50.208;9.182;2023-06-14T12:51:31;2.85;;;1.50;;
12593;SDS011;6362;50.208;9.182;2023-06-14T12:53:57;2.00;;;1.50;;
12593;SDS011;6362;50.208;9.182;2023-06-14T12:56:22;2.92;;;1.30;;
12593;SDS011;6362;50.208;9.182;2023-06-14T12:58:48;2.50;;;1.38;;
12593;SDS011;6362;50.208;9.182;2023-06-14T13:01:13;2.20;;;1.52;;
12593;SDS011;6362;50.208;9.182;2023-06-14T13:03:38;2.58;;;1.30;;
12593;SDS011;6362;50.208;9.182;2023-06-14T13:06:04;4.53;;;1.90;;
12593;SDS011;6362;50.208;9.182;2023-06-14T13:08:30;4.07;;;2.13;;
12593;SDS011;6362;50.208;9.182;2023-06-14T13:10:56;1.67;;;1.42;;
12593;SDS011;6362;50.208;9.182;2023-06-14T13:13:21;1.95;;;1.40;;
12593;SDS011;6362;50.208;9.182;2023-06-14T13:15:47;2.28;;;1.50;;
12593;SDS011;6362;50.208;9.182;2023-06-14T13:18:14;1.92;;;1.30;;
12593;SDS011;6362;50.208;9.182;2023-06-14T13:20:39;3.83;;;1.63;;
12593;SDS011;6362;50.208;9.182;2023-06-14T13:23:05;1.67;;;1.35;;
12593;SDS011;6362;50.208;9.182;2023-06-14T13:25:32;3.15;;;1.52;;
12593;SDS011;6362;50.208;9.182;2023-06-14T13:27:59;3.20;;;1.80;;
12593;SDS011;6362;50.208;9.182;2023-06-14T13:30:24;2.85;;;1.40;;
12593;SDS011;6362;50.208;9.182;2023-06-14T13:32:50;1.55;;;1.45;;
12593;SDS011;6362;50.208;9.182;2023-06-14T13:35:17;3.58;;;1.95;;
12593;SDS011;6362;50.208;9.182;2023-06-14T13:37:43;1.75;;;1.20;;
12593;SDS011;6362;50.208;9.182;2023-06-14T13:40:08;2.47;;;1.40;;
12593;SDS011;6362;50.208;9.182;2023-06-14T13:42:34;1.95;;;1.48;;
12593;SDS011;6362;50.208;9.182;2023-06-14T13:45:00;140.18;;;11.80;;
12593;SDS011;6362;50.208;9.182;2023-06-14T13:47:27;10.85;;;2.25;;
12593;SDS011;6362;50.208;9.182;2023-06-14T13:49:52;4.85;;;1.52;;
12593;SDS011;6362;50.208;9.182;2023-06-14T13:52:17;4.15;;;1.35;;
12593;SDS011;6362;50.208;9.182;2023-06-14T13:54:43;3.35;;;1.30;;
12593;SDS011;6362;50.208;9.182;2023-06-14T13:57:08;2.05;;;1.50;;
12593;SDS011;6362;50.208;9.182;2023-06-14T13:59:37;3.70;;;1.35;;
12593;SDS011;6362;50.208;9.182;2023-06-14T14:02:03;2.95;;;1.45;;
12593;SDS011;6362;50.208;9.182;2023-06-14T14:04:30;2.88;;;1.13;;
12593;SDS011;6362;50.208;9.182;2023-06-14T14:06:56;2.38;;;1.50;;
12593;SDS011;6362;50.208;9.182;2023-06-14T14:09:22;2.80;;;1.35;;
12593;SDS011;6362;50.208;9.182;2023-06-14T14:11:47;1.85;;;1.50;;
12593;SDS011;6362;50.208;9.182;2023-06-14T14:14:14;2.17;;;1.40;;
12593;SDS011;6362;50.208;9.182;2023-06-14T14:16:39;2.42;;;1.30;;
12593;SDS011;6362;50.208;9.182;2023-06-14T14:19:05;2.95;;;1.50;;
12593;SDS011;6362;50.208;9.182;2023-06-14T14:21:31;2.72;;;1.58;;
12593;SDS011;6362;50.208;9.182;2023-06-14T14:23:57;1.80;;;1.50;;
12593;SDS011;6362;50.208;9.182;2023-06-14T14:26:22;2.55;;;1.30;;
12593;SDS011;6362;50.208;9.182;2023-06-14T14:28:48;1.70;;;1.38;;
12593;SDS011;6362;50.208;9.182;2023-06-14T14:31:14;1.92;;;1.40;;
12593;SDS011;6362;50.208;9.182;2023-06-14T14:33:40;3.15;;;1.40;;
12593;SDS011;6362;50.208;9.182;2023-06-14T14:36:05;1.77;;;1.30;;
12593;SDS011;6362;50.208;9.182;2023-06-14T14:38:32;2.05;;;1.60;;
12593;SDS011;6362;50.208;9.182;2023-06-14T14:40:57;1.30;;;1.20;;
12593;SDS011;6362;50.208;9.182;2023-06-14T14:43:22;2.65;;;1.52;;
12593;SDS011;6362;50.208;9.182;2023-06-14T14:45:48;3.58;;;1.77;;
12593;SDS011;6362;50.208;9.182;2023-06-14T14:48:13;1.80;;;1.30;;
12593;SDS011;6362;50.208;9.182;2023-06-14T14:50:39;2.33;;;1.75;;
12593;SDS011;6362;50.208;9.182;2023-06-14T14:53:05;1.67;;;1.50;;
12593;SDS011;6362;50.208;9.182;2023-06-14T14:55:31;2.50;;;1.38;;
12593;SDS011;6362;50.208;9.182;2023-06-14T14:57:59;2.40;;;1.50;;
12593;SDS011;6362;50.208;9.182;2023-06-14T15:00:25;1.95;;;1.63;;
12593;SDS011;6362;50.208;9.182;2023-06-14T15:02:51;2.22;;;1.30;;
12593;SDS011;6362;50.208;9.182;2023-06-14T15:05:16;2.53;;;1.67;;
12593;SDS011;6362;50.208;9.182;2023-06-14T15:07:42;1.55;;;1.38;;
12593;SDS011;6362;50.208;9.182;2023-06-14T15:10:09;3.50;;;1.55;;
12593;SDS011;6362;50.208;9.182;2023-06-14T15:12:35;2.35;;;1.75;;
12593;SDS011;6362;50.208;9.182;2023-06-14T15:15:02;2.33;;;1.27;;
12593;SDS011;6362;50.208;9.182;2023-06-14T15:17:28;1.45;;;1.15;;